Time;durP1;ratioP1;P1;durP2;ratioP2;P2;SDS_P1;SDS_P2;PMS_P1;PMS_P2;Temp;Humidity;BMP_temperature;BMP_pressure;BME280_temperature;BME280_humidity;BME280_pressure;Samples;Min_cycle;Max_cycle;Signal;HPM_P1;HPM_P2
2021/12/27 00:01:04;;;;;;;;;;;;;;;;;;5095622;28;20073;-74
2021/12/27 00:03:29;;;;;;;;;;;;;;;;;;5095812;28;20345;-74
2021/12/27 00:05:55;;;;;;;;;;;;;;;;;;5095293;28;19927;-74
2021/12/27 00:08:20;;;;;;;;;;;;;;;;;;5094578;28;19916;-73
2021/12/27 00:10:45;;;;;;;;;;;;;;;;;;5095332;28;19916;-74
2021/12/27 00:13:11;;;;;;;;;;;;;;;;;;5095594;28;19922;-74
2021/12/27 00:15:36;;;;;;;;;;;;;;;;;;5095196;28;20250;-73
2021/12/27 00:18:02;;;;;;;;;;;;;;;;;;5095434;28;19970;-74
2021/12/27 00:20:28;;;;;;;;;;;;;;;;;;5095113;28;19963;-73
2021/12/27 00:22:54;;;;;;;;;;;;;;;;;;5094272;28;19912;-74
2021/12/27 00:25:20;;;;;;;;;;;;;;;;;;5094719;28;19923;-74
2021/12/27 00:27:46;;;;;;;;;;;;;;;;;;5094950;28;19916;-74
2021/12/27 00:30:13;;;;;;;;;;;;;;;;;;5094986;28;19943;-74
2021/12/27 00:32:40;;;;;;;;;;;;;;;;;;5095210;28;19969;-74
2021/12/27 00:35:07;;;;;;;;;;;;;;;;;;5094987;28;19924;-74
2021/12/27 00:37:33;;;;;;;;;;;;;;;;;;5094048;28;20408;-74
2021/12/27 00:39:58;;;;;;;;;;;;;;;;;;5094856;28;19916;-74
2021/12/27 00:42:23;;;;;;;;;;;;;;;;;;5094943;28;19916;-74
2021/12/27 00:44:49;;;;;;;;;;;;;;;;;;5094308;28;20393;-74
2021/12/27 00:47:14;;;;;;;;;;;;;;;;;;5094794;28;19938;-74
2021/12/27 00:49:40;;;;;;;;;;;;;;;;;;5094657;28;19923;-74
2021/12/27 00:52:05;;;;;;;;;;;;;;;;;;5094800;28;19916;-74
2021/12/27 00:54:31;;;;;;;;;;;;;;;;;;5094511;28;19916;-74
2021/12/27 00:56:56;;;;;;;;;;;;;;;;;;5093352;28;19920;-74
2021/12/27 00:59:21;;;;;;;;;;;;;;;;;;5094466;28;19972;-74
2021/12/27 01:01:46;;;;;;;;;;;;;;;;;;5094609;28;19916;-74
2021/12/27 01:04:12;;;;;;;;;;;;;;;;;;5093519;28;19965;-74
2021/12/27 01:06:37;;;;;;;;;;;;;;;;;;5094204;28;19978;-74
2021/12/27 01:09:03;;;;;;;;;;;;;;;;;;5094239;28;20563;-74
2021/12/27 01:11:41;;;;;;;;;;;;;;;;;;5094512;28;19920;-74
2021/12/27 01:14:13;;;;;;;;;;;;;;;;;;5093074;28;19916;-74
2021/12/27 01:16:39;;;;;;;;;;;;;;;;;;5093683;28;19916;-74
2021/12/27 01:19:06;;;;;;;;;;;;;;;;;;5094365;28;19995;-74
2021/12/27 01:21:31;;;;;;;;;;;;;;;;;;5094203;28;19916;-74
2021/12/27 01:23:57;;;;;;;;;;;;;;;;;;5094166;28;19922;-74
2021/12/27 01:26:22;;;;;;;;;;;;;;;;;;5094104;28;20288;-74
2021/12/27 01:28:48;;;;;;;;;;;;;;;;;;5094137;28;19994;-74
2021/12/27 01:31:13;;;;;;;;;;;;;;;;;;5094183;28;20019;-74
2021/12/27 01:33:39;;;;;;;;;;;;;;;;;;5093864;28;19967;-74
2021/12/27 01:36:04;;;;;;;;;;;;;;;;;;5093884;28;20407;-74
2021/12/27 01:38:30;;;;;;;;;;;;;;;;;;5093063;28;20007;-74
2021/12/27 01:40:57;;;;;;;;;;;;;;;;;;5093890;28;19982;-74
2021/12/27 01:43:29;;;;;;;;;;;;;;;;;;5094106;28;20019;-74
2021/12/27 01:46:02;;;;;;;;;;;;;;;;;;5093089;28;19928;-74
2021/12/27 01:48:33;;;;;;;;;;;;;;;;;;5093918;28;20276;-74
2021/12/27 01:50:59;;;;;;;;;;;;;;;;;;5093553;28;19916;-74
2021/12/27 01:53:26;;;;;;;;;;;;;;;;;;5093622;28;19922;-74
2021/12/27 01:55:52;;;;;;;;;;;;;;;;;;5093892;28;19923;-74
2021/12/27 01:58:18;;;;;;;;;;;;;;;;;;5093471;28;19923;-74
2021/12/27 02:00:45;;;;;;;;;;;;;;;;;;5093772;28;19916;-74
2021/12/27 02:03:12;;;;;;;;;;;;;;;;;;5093696;28;19916;-74
2021/12/27 02:05:38;;;;;;;;;;;;;;;;;;5093468;28;19920;-74
2021/12/27 02:08:03;;;;;;;;;;;;;;;;;;5092594;28;19923;-74
2021/12/27 02:10:29;;;;;;;;;;;;;;;;;;5093721;28;19939;-74
2021/12/27 02:12:54;;;;;;;;;;;;;;;;;;5093565;28;20013;-74
2021/12/27 02:15:19;;;;;;;;;;;;;;;;;;5093529;28;19916;-74
2021/12/27 02:17:45;;;;;;;;;;;;;;;;;;5093429;28;20010;-74
2021/12/27 02:20:18;;;;;;;;;;;;;;;;;;5092363;28;19919;-74
2021/12/27 02:22:44;;;;;;;;;;;;;;;;;;5093490;28;19916;-74
2021/12/27 02:25:10;;;;;;;;;;;;;;;;;;5092749;28;19920;-74
2021/12/27 02:27:35;;;;;;;;;;;;;;;;;;5093967;28;19919;-74
2021/12/27 02:30:01;;;;;;;;;;;;;;;;;;5097706;28;20257;-74
2021/12/27 02:32:27;;;;;;;;;;;;;;;;;;5097299;28;19916;-74
2021/12/27 02:34:52;;;;;;;;;;;;;;;;;;5097591;28;19916;-74
2021/12/27 02:37:17;;;;;;;;;;;;;;;;;;5096018;28;19927;-74
2021/12/27 02:39:44;;;;;;;;;;;;;;;;;;5097341;28;19916;-74
2021/12/27 02:42:09;;;;;;;;;;;;;;;;;;5097071;28;19916;-73
2021/12/27 02:44:34;;;;;;;;;;;;;;;;;;5096903;28;19916;-74
2021/12/27 02:47:00;;;;;;;;;;;;;;;;;;5096880;28;19973;-74
2021/12/27 02:49:25;;;;;;;;;;;;;;;;;;5096806;28;19916;-74
2021/12/27 02:51:52;;;;;;;;;;;;;;;;;;5097196;28;20380;-74
2021/12/27 02:54:18;;;;;;;;;;;;;;;;;;5097187;28;19923;-74
2021/12/27 02:56:43;;;;;;;;;;;;;;;;;;5096774;28;19920;-74
2021/12/27 02:59:08;;;;;;;;;;;;;;;;;;5095607;28;20446;-74
2021/12/27 03:01:33;;;;;;;;;;;;;;;;;;5096924;28;19962;-74
2021/12/27 03:03:59;;;;;;;;;;;;;;;;;;5096734;28;19916;-74
2021/12/27 03:06:24;;;;;;;;;;;;;;;;;;5096661;28;19959;-74
2021/12/27 03:08:49;;;;;;;;;;;;;;;;;;5096752;28;19916;-74
2021/12/27 03:11:15;;;;;;;;;;;;;;;;;;5095309;28;19915;-74
2021/12/27 03:13:45;;;;;;;;;;;;;;;;;;5096665;28;19916;-74
2021/12/27 03:16:12;;;;;;;;;;;;;;;;;;5096537;28;19976;-74
2021/12/27 03:18:39;;;;;;;;;;;;;;;;;;5096501;28;19916;-74
2021/12/27 03:21:05;;;;;;;;;;;;;;;;;;5096337;28;19916;-74
2021/12/27 03:23:31;;;;;;;;;;;;;;;;;;5096672;28;19916;-73
2021/12/27 03:25:56;;;;;;;;;;;;;;;;;;5096039;28;20464;-74
2021/12/27 03:28:22;;;;;;;;;;;;;;;;;;5096443;28;20010;-74
2021/12/27 03:30:48;;;;;;;;;;;;;;;;;;5078175;28;19916;-74
2021/12/27 03:33:14;;;;;;;;;;;;;;;;;;5096396;28;19923;-74
2021/12/27 03:35:48;;;;;;;;;;;;;;;;;;5096042;28;20358;-74
2021/12/27 03:38:14;;;;;;;;;;;;;;;;;;5093628;28;19916;-74
2021/12/27 03:40:39;;;;;;;;;;;;;;;;;;5095890;28;20010;-73
2021/12/27 03:43:05;;;;;;;;;;;;;;;;;;5096001;28;20365;-74
2021/12/27 03:45:33;;;;;;;;;;;;;;;;;;5095550;28;19920;-74
2021/12/27 03:47:58;;;;;;;;;;;;;;;;;;5095855;28;20262;-74
2021/12/27 03:50:25;;;;;;;;;;;;;;;;;;5094676;28;19969;-74
2021/12/27 03:52:51;;;;;;;;;;;;;;;;;;5095556;28;19916;-74
2021/12/27 03:55:16;;;;;;;;;;;;;;;;;;5095411;28;19992;-74
2021/12/27 03:57:50;;;;;;;;;;;;;;;;;;5095602;28;19927;-73
2021/12/27 04:02:47;;;;;;;;;;;;;;;;;;5095590;28;19916;-74
2021/12/27 04:05:13;;;;;;;;;;;;;;;;;;5095310;28;19971;-73
2021/12/27 04:07:40;;;;;;;;;;;;;;;;;;5094240;28;19951;-74
2021/12/27 04:10:07;;;;;;;;;;;;;;;;;;5095531;28;19916;-74
2021/12/27 04:12:32;;;;;;;;;;;;;;;;;;5094276;28;19920;-74
2021/12/27 04:14:57;;;;;;;;;;;;;;;;;;5095648;28;19923;-74
2021/12/27 04:17:23;;;;;;;;;;;;;;;;;;5094058;28;19912;-74
2021/12/27 04:19:48;;;;;;;;;;;;;;;;;;5095212;28;20005;-73
2021/12/27 04:22:13;;;;;;;;;;;;;;;;;;5095250;28;19977;-74
2021/12/27 04:24:39;;;;;;;;;;;;;;;;;;5095293;28;19916;-74
2021/12/27 04:27:04;;;;;;;;;;;;;;;;;;5094794;28;19967;-74
2021/12/27 04:29:29;;;;;;;;;;;;;;;;;;5095259;28;19966;-74
2021/12/27 04:31:55;;;;;;;;;;;;;;;;;;5094784;28;19920;-74
2021/12/27 04:34:20;;;;;;;;;;;;;;;;;;5094364;28;19916;-74
2021/12/27 04:36:45;;;;;;;;;;;;;;;;;;5094724;28;19916;-74
2021/12/27 04:39:11;;;;;;;;;;;;;;;;;;5094955;28;19916;-74
2021/12/27 04:41:36;;;;;;;;;;;;;;;;;;5093634;28;19916;-74
2021/12/27 04:44:02;;;;;;;;;;;;;;;;;;5095060;28;20159;-74
2021/12/27 04:46:27;;;;;;;;;;;;;;;;;;5094337;28;19979;-73
2021/12/27 04:48:53;;;;;;;;;;;;;;;;;;5094954;28;19923;-74
2021/12/27 04:51:20;;;;;;;;;;;;;;;;;;5094041;28;20002;-74
2021/12/27 04:53:46;;;;;;;;;;;;;;;;;;5094434;28;20014;-74
2021/12/27 04:56:11;;;;;;;;;;;;;;;;;;5094495;28;20015;-74
2021/12/27 04:58:36;;;;;;;;;;;;;;;;;;5094566;28;19973;-74
2021/12/27 05:01:01;;;;;;;;;;;;;;;;;;5094736;28;19919;-74
2021/12/27 05:03:27;;;;;;;;;;;;;;;;;;5094344;28;19916;-73
2021/12/27 05:05:52;;;;;;;;;;;;;;;;;;5094282;28;19966;-74
2021/12/27 05:08:17;;;;;;;;;;;;;;;;;;5094644;28;19923;-74
2021/12/27 05:10:43;;;;;;;;;;;;;;;;;;5094494;28;20002;-74
2021/12/27 05:13:08;;;;;;;;;;;;;;;;;;5094190;28;19916;-74
2021/12/27 05:15:33;;;;;;;;;;;;;;;;;;5094391;28;19916;-73
2021/12/27 05:17:58;;;;;;;;;;;;;;;;;;5093357;28;19916;-74
2021/12/27 05:20:24;;;;;;;;;;;;;;;;;;5093093;28;19916;-73
2021/12/27 05:22:49;;;;;;;;;;;;;;;;;;5094208;28;19916;-73
2021/12/27 05:25:16;;;;;;;;;;;;;;;;;;5092874;28;19916;-74
2021/12/27 05:27:42;;;;;;;;;;;;;;;;;;5094471;28;19916;-74
2021/12/27 05:30:08;;;;;;;;;;;;;;;;;;5094209;28;19916;-74
2021/12/27 05:32:35;;;;;;;;;;;;;;;;;;5093961;28;20331;-74
2021/12/27 05:35:02;;;;;;;;;;;;;;;;;;5093965;28;19916;-73
2021/12/27 05:37:27;;;;;;;;;;;;;;;;;;5093955;28;19916;-73
2021/12/27 05:39:52;;;;;;;;;;;;;;;;;;5092539;28;20434;-74
2021/12/27 05:42:17;;;;;;;;;;;;;;;;;;5094020;28;19927;-74
2021/12/27 05:44:43;;;;;;;;;;;;;;;;;;5093782;28;19916;-74
2021/12/27 05:47:08;;;;;;;;;;;;;;;;;;5093952;28;20007;-73
2021/12/27 05:49:33;;;;;;;;;;;;;;;;;;5093084;28;19916;-73
2021/12/27 05:51:58;;;;;;;;;;;;;;;;;;5092486;28;20317;-74
2021/12/27 05:54:24;;;;;;;;;;;;;;;;;;5092051;28;20365;-73
2021/12/27 05:56:49;;;;;;;;;;;;;;;;;;5093208;28;20255;-74
2021/12/27 05:59:16;;;;;;;;;;;;;;;;;;5093704;28;19961;-74
2021/12/27 06:01:42;;;;;;;;;;;;;;;;;;5094663;28;19923;-74
2021/12/27 06:04:07;;;;;;;;;;;;;;;;;;5097870;28;20011;-73
2021/12/27 06:06:32;;;;;;;;;;;;;;;;;;5096832;28;19923;-73
2021/12/27 06:08:57;;;;;;;;;;;;;;;;;;5097837;28;20296;-73
2021/12/27 06:11:23;;;;;;;;;;;;;;;;;;5097658;28;19923;-74
2021/12/27 06:13:49;;;;;;;;;;;;;;;;;;5097834;28;19924;-74
2021/12/27 06:16:15;;;;;;;;;;;;;;;;;;5097239;28;20400;-73
2021/12/27 06:18:40;;;;;;;;;;;;;;;;;;5096129;28;19916;-73
2021/12/27 06:21:06;;;;;;;;;;;;;;;;;;5097677;28;20004;-74
2021/12/27 06:23:31;;;;;;;;;;;;;;;;;;5097837;28;19974;-74
2021/12/27 06:25:57;;;;;;;;;;;;;;;;;;5097142;28;20022;-74
2021/12/27 06:28:22;;;;;;;;;;;;;;;;;;5097735;28;20058;-74
2021/12/27 06:30:47;;;;;;;;;;;;;;;;;;5097069;28;19916;-74
2021/12/27 06:33:13;;;;;;;;;;;;;;;;;;5096714;28;19915;-74
2021/12/27 06:35:38;;;;;;;;;;;;;;;;;;5097043;28;19923;-73
2021/12/27 06:38:03;;;;;;;;;;;;;;;;;;5097458;28;20521;-74
2021/12/27 06:40:30;;;;;;;;;;;;;;;;;;5097063;28;19915;-74
2021/12/27 06:42:56;;;;;;;;;;;;;;;;;;5097002;28;20293;-74
2021/12/27 06:45:22;;;;;;;;;;;;;;;;;;5094895;28;19920;-74
2021/12/27 06:47:47;;;;;;;;;;;;;;;;;;5095664;28;19916;-73
2021/12/27 06:50:12;;;;;;;;;;;;;;;;;;5095737;28;19920;-74
2021/12/27 06:52:38;;;;;;;;;;;;;;;;;;5097116;28;19923;-74
2021/12/27 06:55:03;;;;;;;;;;;;;;;;;;5096737;28;20262;-73
2021/12/27 06:57:30;;;;;;;;;;;;;;;;;;5096364;28;19923;-74
2021/12/27 06:59:56;;;;;;;;;;;;;;;;;;5096923;28;19958;-74
2021/12/27 07:02:22;;;;;;;;;;;;;;;;;;5095608;28;19924;-74
2021/12/27 07:04:47;;;;;;;;;;;;;;;;;;5095700;28;19969;-74
2021/12/27 07:07:13;;;;;;;;;;;;;;;;;;5096351;28;19920;-74
2021/12/27 07:09:38;;;;;;;;;;;;;;;;;;5096718;28;19923;-74
2021/12/27 07:12:04;;;;;;;;;;;;;;;;;;5096418;28;19939;-74
2021/12/27 07:14:29;;;;;;;;;;;;;;;;;;5095988;28;19916;-74
2021/12/27 07:16:54;;;;;;;;;;;;;;;;;;5095214;28;19935;-74
2021/12/27 07:19:20;;;;;;;;;;;;;;;;;;5096637;28;19916;-73
2021/12/27 07:21:45;;;;;;;;;;;;;;;;;;5096621;28;19963;-74
2021/12/27 07:24:10;;;;;;;;;;;;;;;;;;5096462;28;19919;-74
2021/12/27 07:26:36;;;;;;;;;;;;;;;;;;5094865;28;20002;-74
2021/12/27 07:29:01;;;;;;;;;;;;;;;;;;5096012;28;19916;-74
2021/12/27 07:31:27;;;;;;;;;;;;;;;;;;5096273;28;19920;-73
2021/12/27 07:33:53;;;;;;;;;;;;;;;;;;5094258;28;20339;-73
2021/12/27 07:36:19;;;;;;;;;;;;;;;;;;5095492;28;19962;-73
2021/12/27 07:38:44;;;;;;;;;;;;;;;;;;5095814;28;19920;-72
2021/12/27 07:41:10;;;;;;;;;;;;;;;;;;5095909;28;19916;-73
2021/12/27 07:43:35;;;;;;;;;;;;;;;;;;5096260;28;19923;-73
2021/12/27 07:46:01;;;;;;;;;;;;;;;;;;5095472;28;19970;-73
2021/12/27 07:48:26;;;;;;;;;;;;;;;;;;5095310;28;20001;-73
2021/12/27 07:50:51;;;;;;;;;;;;;;;;;;5096216;28;19916;-73
2021/12/27 07:53:17;;;;;;;;;;;;;;;;;;5095624;28;19995;-73
2021/12/27 07:55:42;;;;;;;;;;;;;;;;;;5094164;28;20353;-73
2021/12/27 07:58:07;;;;;;;;;;;;;;;;;;5095557;28;19923;-72
2021/12/27 08:00:33;;;;;;;;;;;;;;;;;;5095774;28;19919;-73
2021/12/27 08:02:58;;;;;;;;;;;;;;;;;;5095484;28;19951;-73
2021/12/27 08:05:24;;;;;;;;;;;;;;;;;;5094705;28;20361;-73
2021/12/27 08:07:49;;;;;;;;;;;;;;;;;;5095657;28;19920;-75
2021/12/27 08:10:15;;;;;;;;;;;;;;;;;;5095464;28;19923;-74
2021/12/27 08:12:41;;;;;;;;;;;;;;;;;;5094285;28;19916;-75
2021/12/27 08:15:07;;;;;;;;;;;;;;;;;;5095449;28;20275;-75
2021/12/27 08:17:33;;;;;;;;;;;;;;;;;;5095146;28;20362;-75
2021/12/27 08:19:58;;;;;;;;;;;;;;;;;;5095323;28;19923;-75
2021/12/27 08:22:24;;;;;;;;;;;;;;;;;;5095472;28;20072;-76
2021/12/27 08:24:49;;;;;;;;;;;;;;;;;;5093515;28;19923;-75
2021/12/27 08:27:15;;;;;;;;;;;;;;;;;;5094693;28;20373;-75
2021/12/27 08:29:40;;;;;;;;;;;;;;;;;;5094813;28;20010;-75
2021/12/27 08:32:06;;;;;;;;;;;;;;;;;;5093026;28;20270;-74
2021/12/27 08:34:32;;;;;;;;;;;;;;;;;;5094924;28;20254;-74
2021/12/27 08:36:57;;;;;;;;;;;;;;;;;;5093867;28;19923;-74
2021/12/27 08:39:23;;;;;;;;;;;;;;;;;;5095041;28;19926;-74
2021/12/27 08:41:48;;;;;;;;;;;;;;;;;;5094793;28;19916;-75
2021/12/27 08:44:13;;;;;;;;;;;;;;;;;;5094910;28;19916;-76
2021/12/27 08:46:40;;;;;;;;;;;;;;;;;;5094411;28;19965;-75
2021/12/27 08:49:05;;;;;;;;;;;;;;;;;;5094383;28;19920;-76
2021/12/27 08:51:31;;;;;;;;;;;;;;;;;;5094513;28;19916;-75
2021/12/27 08:53:56;;;;;;;;;;;;;;;;;;5093475;28;19932;-75
2021/12/27 08:56:22;;;;;;;;;;;;;;;;;;5094532;28;19920;-74
2021/12/27 08:58:47;;;;;;;;;;;;;;;;;;5094514;28;19916;-74
2021/12/27 09:01:12;;;;;;;;;;;;;;;;;;5094531;28;19942;-74
2021/12/27 09:03:38;;;;;;;;;;;;;;;;;;5094303;28;19923;-74
2021/12/27 09:06:03;;;;;;;;;;;;;;;;;;5094105;28;19942;-73
2021/12/27 09:08:29;;;;;;;;;;;;;;;;;;5093733;28;19927;-73
2021/12/27 09:10:57;;;;;;;;;;;;;;;;;;5094351;28;19923;-73
2021/12/27 09:13:27;;;;;;;;;;;;;;;;;;5093162;28;20006;-73
2021/12/27 09:15:52;;;;;;;;;;;;;;;;;;5094176;28;19916;-73
2021/12/27 09:18:17;;;;;;;;;;;;;;;;;;5092915;28;20376;-73
2021/12/27 09:20:42;;;;;;;;;;;;;;;;;;5094351;28;19916;-73
2021/12/27 09:23:08;;;;;;;;;;;;;;;;;;5093414;28;19973;-73
2021/12/27 09:25:33;;;;;;;;;;;;;;;;;;5093980;28;19926;-73
2021/12/27 09:27:59;;;;;;;;;;;;;;;;;;5093962;28;19916;-73
2021/12/27 09:30:24;;;;;;;;;;;;;;;;;;5093012;28;20003;-73
2021/12/27 09:32:50;;;;;;;;;;;;;;;;;;5092974;28;19916;-73
2021/12/27 09:35:16;;;;;;;;;;;;;;;;;;5094100;28;19916;-73
2021/12/27 09:37:41;;;;;;;;;;;;;;;;;;5092879;28;19961;-74
2021/12/27 09:40:07;;;;;;;;;;;;;;;;;;5093812;28;19916;-73
2021/12/27 09:42:35;;;;;;;;;;;;;;;;;;5092532;28;19965;-72
2021/12/27 09:45:01;;;;;;;;;;;;;;;;;;5093610;28;19920;-72
2021/12/27 09:47:28;;;;;;;;;;;;;;;;;;5092689;28;21359;-75
2021/12/27 09:49:53;;;;;;;;;;;;;;;;;;5094015;28;19916;-72
2021/12/27 09:52:18;;;;;;;;;;;;;;;;;;5093852;28;19920;-72
2021/12/27 09:54:47;;;;;;;;;;;;;;;;;;5092632;28;19962;-72
2021/12/27 09:57:12;;;;;;;;;;;;;;;;;;5093800;28;20043;-74
2021/12/27 09:59:37;;;;;;;;;;;;;;;;;;5093780;28;19916;-72
2021/12/27 10:02:03;;;;;;;;;;;;;;;;;;5093825;28;19962;-72
2021/12/27 10:04:28;;;;;;;;;;;;;;;;;;5092428;28;20002;-72
2021/12/27 10:06:53;;;;;;;;;;;;;;;;;;5091425;28;20269;-72
2021/12/27 10:09:21;;;;;;;;;;;;;;;;;;5093658;28;19916;-72
2021/12/27 10:11:47;;;;;;;;;;;;;;;;;;5093814;28;19916;-72
2021/12/27 10:14:12;;;;;;;;;;;;;;;;;;5093524;28;20459;-72
2021/12/27 10:16:39;;;;;;;;;;;;;;;;;;5093591;28;19916;-72
2021/12/27 10:19:06;;;;;;;;;;;;;;;;;;5093513;28;19923;-72
2021/12/27 10:21:33;;;;;;;;;;;;;;;;;;5093779;28;19951;-72
2021/12/27 10:24:02;;;;;;;;;;;;;;;;;;5093710;28;19916;-71
2021/12/27 10:26:28;;;;;;;;;;;;;;;;;;5091197;28;20263;-72
2021/12/27 10:29:14;;;;;;;;;;;;;;;;;;5093615;28;20265;-73
2021/12/27 10:31:51;;;;;;;;;;;;;;;;;;5092296;28;19916;-73
2021/12/27 10:34:17;;;;;;;;;;;;;;;;;;5093148;28;19961;-73
2021/12/27 10:36:57;;;;;;;;;;;;;;;;;;5091297;28;19920;-73
2021/12/27 10:39:23;;;;;;;;;;;;;;;;;;5093397;28;20018;-73
2021/12/27 10:41:48;;;;;;;;;;;;;;;;;;5092241;28;20401;-73
2021/12/27 10:44:13;;;;;;;;;;;;;;;;;;5092184;28;19915;-73
2021/12/27 10:46:38;;;;;;;;;;;;;;;;;;5093004;28;19953;-73
2021/12/27 10:49:04;;;;;;;;;;;;;;;;;;5094926;28;19923;-76
2021/12/27 10:51:29;;;;;;;;;;;;;;;;;;5095887;28;20003;-74
2021/12/27 10:53:57;;;;;;;;;;;;;;;;;;5096955;28;19916;-72
2021/12/27 10:56:26;;;;;;;;;;;;;;;;;;5096921;28;19916;-73
2021/12/27 10:58:51;;;;;;;;;;;;;;;;;;5097239;28;20385;-73
2021/12/27 11:01:18;;;;;;;;;;;;;;;;;;5097054;28;19923;-72
2021/12/27 11:03:44;;;;;;;;;;;;;;;;;;5096908;28;19916;-74
2021/12/27 11:06:10;;;;;;;;;;;;;;;;;;5096234;28;19927;-74
2021/12/27 11:08:38;;;;;;;;;;;;;;;;;;5096708;28;19923;-75
2021/12/27 11:11:04;;;;;;;;;;;;;;;;;;5096789;28;20276;-73
2021/12/27 11:13:29;;;;;;;;;;;;;;;;;;5096844;28;19916;-72
2021/12/27 11:15:55;;;;;;;;;;;;;;;;;;5095370;28;19923;-74
2021/12/27 11:18:21;;;;;;;;;;;;;;;;;;5096389;28;19916;-73
2021/12/27 11:20:47;;;;;;;;;;;;;;;;;;5095296;28;19916;-72
2021/12/27 11:23:13;;;;;;;;;;;;;;;;;;5096646;28;19920;-73
2021/12/27 11:25:40;;;;;;;;;;;;;;;;;;5095040;28;19930;-74
2021/12/27 11:28:23;;;;;;;;;;;;;;;;;;5096476;28;19966;-73
2021/12/27 11:30:48;;;;;;;;;;;;;;;;;;5096237;28;19916;-73
2021/12/27 11:33:13;;;;;;;;;;;;;;;;;;5096105;28;19916;-73
2021/12/27 11:35:51;;;;;;;;;;;;;;;;;;5095807;28;19916;-73
2021/12/27 11:38:30;;;;;;;;;;;;;;;;;;5095162;28;19916;-75
2021/12/27 11:40:55;;;;;;;;;;;;;;;;;;5096305;28;19961;-75
2021/12/27 11:43:20;;;;;;;;;;;;;;;;;;5096200;28;19916;-75
2021/12/27 11:45:46;;;;;;;;;;;;;;;;;;5095679;28;20289;-75
2021/12/27 11:48:16;;;;;;;;;;;;;;;;;;5094715;28;20286;-75
2021/12/27 11:50:56;;;;;;;;;;;;;;;;;;5095286;28;19920;-74
2021/12/27 11:53:26;;;;;;;;;;;;;;;;;;5095832;28;20380;-75
2021/12/27 11:55:51;;;;;;;;;;;;;;;;;;5094343;28;19912;-73
2021/12/27 11:58:32;;;;;;;;;;;;;;;;;;5095766;28;19916;-73
2021/12/27 12:00:57;;;;;;;;;;;;;;;;;;5095428;28;20003;-72
2021/12/27 12:03:39;;;;;;;;;;;;;;;;;;5095605;28;20069;-74
2021/12/27 12:06:05;;;;;;;;;;;;;;;;;;5095476;28;19920;-73
2021/12/27 12:08:43;;;;;;;;;;;;;;;;;;5095939;28;20053;-74
2021/12/27 12:11:10;;;;;;;;;;;;;;;;;;5095650;28;20282;-73
2021/12/27 12:13:42;;;;;;;;;;;;;;;;;;5095419;28;20432;-73
2021/12/27 12:16:07;;;;;;;;;;;;;;;;;;5095167;28;19916;-73
2021/12/27 12:18:33;;;;;;;;;;;;;;;;;;5095301;28;19923;-73
2021/12/27 12:20:59;;;;;;;;;;;;;;;;;;5095382;28;19923;-73
2021/12/27 12:23:25;;;;;;;;;;;;;;;;;;5094330;28;19920;-73
2021/12/27 12:25:58;;;;;;;;;;;;;;;;;;5095151;28;19942;-74
2021/12/27 12:28:23;;;;;;;;;;;;;;;;;;5095002;28;19946;-73
2021/12/27 12:30:50;;;;;;;;;;;;;;;;;;5095212;28;19919;-73
2021/12/27 12:33:16;;;;;;;;;;;;;;;;;;5094843;28;20008;-73
2021/12/27 12:35:48;;;;;;;;;;;;;;;;;;5095222;28;19931;-73
2021/12/27 12:38:24;;;;;;;;;;;;;;;;;;5094142;28;20428;-73
2021/12/27 12:41:01;;;;;;;;;;;;;;;;;;5094761;28;20277;-73
2021/12/27 12:43:34;;;;;;;;;;;;;;;;;;5094683;28;20015;-73
2021/12/27 12:46:35;;;;;;;;;;;;;;;;;;5093186;28;20034;-73
2021/12/27 12:49:33;;;;;;;;;;;;;;;;;;5050914;28;19970;-73
2021/12/27 12:52:02;;;;;;;;;;;;;;;;;;5051645;28;19923;-73
2021/12/27 12:54:35;;;;;;;;;;;;;;;;;;5073005;28;20395;-73
2021/12/27 12:57:20;;;;;;;;;;;;;;;;;;5074251;28;19923;-73
2021/12/27 12:59:45;;;;;;;;;;;;;;;;;;5074308;28;19932;-73
2021/12/27 13:02:16;;;;;;;;;;;;;;;;;;5074115;28;19916;-72
2021/12/27 13:04:45;;;;;;;;;;;;;;;;;;5087034;28;19916;-73
2021/12/27 13:07:10;;;;;;;;;;;;;;;;;;5094252;28;19924;-73
2021/12/27 13:09:42;;;;;;;;;;;;;;;;;;5094521;28;20408;-73
2021/12/27 13:12:07;;;;;;;;;;;;;;;;;;5092458;28;19916;-73
2021/12/27 13:14:33;;;;;;;;;;;;;;;;;;5094525;28;19981;-73
2021/12/27 13:17:09;;;;;;;;;;;;;;;;;;5094358;28;20010;-73
2021/12/27 13:19:54;;;;;;;;;;;;;;;;;;5094277;28;20353;-73
2021/12/27 13:22:38;;;;;;;;;;;;;;;;;;5094078;28;20269;-73
2021/12/27 13:25:04;;;;;;;;;;;;;;;;;;5094223;28;19922;-73
2021/12/27 13:27:30;;;;;;;;;;;;;;;;;;5093896;28;19916;-73
2021/12/27 13:30:04;;;;;;;;;;;;;;;;;;5093708;28;20007;-73
2021/12/27 13:32:29;;;;;;;;;;;;;;;;;;5093756;28;19916;-73
2021/12/27 13:34:54;;;;;;;;;;;;;;;;;;5093321;28;19916;-73
2021/12/27 13:37:19;;;;;;;;;;;;;;;;;;5093896;28;19923;-73
2021/12/27 13:39:45;;;;;;;;;;;;;;;;;;5093916;28;19916;-73
2021/12/27 13:42:13;;;;;;;;;;;;;;;;;;5092750;28;19916;-73
2021/12/27 13:44:38;;;;;;;;;;;;;;;;;;5092904;28;19916;-73
2021/12/27 13:47:03;;;;;;;;;;;;;;;;;;5093639;28;19946;-73
2021/12/27 13:49:29;;;;;;;;;;;;;;;;;;5094029;28;19962;-73
2021/12/27 13:51:58;;;;;;;;;;;;;;;;;;5094055;28;19952;-73
2021/12/27 13:54:23;;;;;;;;;;;;;;;;;;5092914;28;19927;-73
2021/12/27 13:56:51;;;;;;;;;;;;;;;;;;5093771;28;20345;-73
2021/12/27 13:59:18;;;;;;;;;;;;;;;;;;5092368;28;19916;-73
2021/12/27 14:01:54;;;;;;;;;;;;;;;;;;5093568;28;19956;-73
2021/12/27 14:04:21;;;;;;;;;;;;;;;;;;5093013;28;19962;-73
2021/12/27 14:06:46;;;;;;;;;;;;;;;;;;5093323;28;19955;-73
2021/12/27 14:09:12;;;;;;;;;;;;;;;;;;5093632;28;19952;-74
2021/12/27 14:11:49;;;;;;;;;;;;;;;;;;5093605;28;20275;-73
2021/12/27 14:14:15;;;;;;;;;;;;;;;;;;5093760;28;19920;-72
2021/12/27 14:16:40;;;;;;;;;;;;;;;;;;5093759;28;20276;-73
2021/12/27 14:19:22;;;;;;;;;;;;;;;;;;5093717;28;20431;-73
2021/12/27 14:22:06;;;;;;;;;;;;;;;;;;5093732;28;19916;-73
2021/12/27 14:24:39;;;;;;;;;;;;;;;;;;5097590;28;20359;-73
2021/12/27 14:27:06;;;;;;;;;;;;;;;;;;5097417;28;19920;-72
2021/12/27 14:29:31;;;;;;;;;;;;;;;;;;5097737;28;19916;-73
2021/12/27 14:31:57;;;;;;;;;;;;;;;;;;5097382;28;19916;-73
2021/12/27 14:34:34;;;;;;;;;;;;;;;;;;5096515;28;19920;-72
2021/12/27 14:37:00;;;;;;;;;;;;;;;;;;5097319;28;19922;-73
2021/12/27 14:39:25;;;;;;;;;;;;;;;;;;5097462;28;20417;-73
2021/12/27 14:41:51;;;;;;;;;;;;;;;;;;5097292;28;20324;-73
2021/12/27 14:44:16;;;;;;;;;;;;;;;;;;5097328;28;20007;-73
2021/12/27 14:46:42;;;;;;;;;;;;;;;;;;5097035;28;19927;-73
2021/12/27 14:49:09;;;;;;;;;;;;;;;;;;5097093;28;19935;-73
2021/12/27 14:51:34;;;;;;;;;;;;;;;;;;5097089;28;20440;-73
2021/12/27 14:54:00;;;;;;;;;;;;;;;;;;5097190;28;19999;-73
2021/12/27 14:56:25;;;;;;;;;;;;;;;;;;5097040;28;19923;-73
2021/12/27 14:58:50;;;;;;;;;;;;;;;;;;5096946;28;19940;-73
2021/12/27 15:01:16;;;;;;;;;;;;;;;;;;5097149;28;20053;-73
2021/12/27 15:03:41;;;;;;;;;;;;;;;;;;5090199;28;19916;-73
2021/12/27 15:06:07;;;;;;;;;;;;;;;;;;5094296;28;19927;-73
2021/12/27 15:08:32;;;;;;;;;;;;;;;;;;5095290;28;19916;-73
2021/12/27 15:10:58;;;;;;;;;;;;;;;;;;5092424;28;19916;-73
2021/12/27 15:13:25;;;;;;;;;;;;;;;;;;5085768;28;19919;-73
2021/12/27 15:15:50;;;;;;;;;;;;;;;;;;5087089;28;20372;-73
2021/12/27 15:18:15;;;;;;;;;;;;;;;;;;5085540;28;19964;-73
2021/12/27 15:20:41;;;;;;;;;;;;;;;;;;5085943;28;20331;-73
2021/12/27 15:23:06;;;;;;;;;;;;;;;;;;5086972;28;19960;-73
2021/12/27 15:25:31;;;;;;;;;;;;;;;;;;5085783;28;19927;-73
2021/12/27 15:27:57;;;;;;;;;;;;;;;;;;5085568;28;19917;-73
2021/12/27 15:30:23;;;;;;;;;;;;;;;;;;5084574;28;19977;-73
2021/12/27 15:32:48;;;;;;;;;;;;;;;;;;5092723;28;19916;-73
2021/12/27 15:35:15;;;;;;;;;;;;;;;;;;5094183;28;20319;-73
2021/12/27 15:37:41;;;;;;;;;;;;;;;;;;5096175;28;19916;-73
2021/12/27 15:40:07;;;;;;;;;;;;;;;;;;5096075;28;19923;-73
2021/12/27 15:42:32;;;;;;;;;;;;;;;;;;5096267;28;19924;-73
2021/12/27 15:44:58;;;;;;;;;;;;;;;;;;5096134;28;19924;-73
2021/12/27 15:47:23;;;;;;;;;;;;;;;;;;5095869;28;19931;-73
2021/12/27 15:49:49;;;;;;;;;;;;;;;;;;5096185;28;19916;-73
2021/12/27 15:52:14;;;;;;;;;;;;;;;;;;5095225;28;19916;-73
2021/12/27 15:54:39;;;;;;;;;;;;;;;;;;5094262;28;19916;-73
2021/12/27 15:57:05;;;;;;;;;;;;;;;;;;5095761;28;19916;-73
2021/12/27 15:59:32;;;;;;;;;;;;;;;;;;5089872;28;20003;-73
2021/12/27 16:01:57;;;;;;;;;;;;;;;;;;5086858;28;19999;-73
2021/12/27 16:04:22;;;;;;;;;;;;;;;;;;5092906;28;19964;-73
2021/12/27 16:06:48;;;;;;;;;;;;;;;;;;5083879;28;19920;-73
2021/12/27 16:09:14;;;;;;;;;;;;;;;;;;5084087;28;19985;-73
2021/12/27 16:11:39;;;;;;;;;;;;;;;;;;5083254;28;19920;-73
2021/12/27 16:14:05;;;;;;;;;;;;;;;;;;5074900;28;19962;-73
2021/12/27 16:16:32;;;;;;;;;;;;;;;;;;5075107;28;19916;-73
2021/12/27 16:18:57;;;;;;;;;;;;;;;;;;5075172;28;20029;-74
2021/12/27 16:21:23;;;;;;;;;;;;;;;;;;5075149;28;20369;-74
2021/12/27 16:23:49;;;;;;;;;;;;;;;;;;5079957;28;19924;-73
2021/12/27 16:26:17;;;;;;;;;;;;;;;;;;5085025;28;20015;-73
2021/12/27 16:28:42;;;;;;;;;;;;;;;;;;5083761;28;20362;-73
2021/12/27 16:31:08;;;;;;;;;;;;;;;;;;5082198;28;19933;-73
2021/12/27 16:33:34;;;;;;;;;;;;;;;;;;5084200;28;19920;-73
2021/12/27 16:36:00;;;;;;;;;;;;;;;;;;5084216;28;20461;-74
2021/12/27 16:38:26;;;;;;;;;;;;;;;;;;5085391;28;20003;-73
2021/12/27 16:40:52;;;;;;;;;;;;;;;;;;5083510;28;19959;-74
2021/12/27 16:43:17;;;;;;;;;;;;;;;;;;5084896;28;19960;-73
2021/12/27 16:45:43;;;;;;;;;;;;;;;;;;5083791;28;19978;-74